Time;durP1;ratioP1;P1;durP2;ratioP2;P2;SDS_P1;SDS_P2;PMS_P1;PMS_P2;Temp;Humidity;BMP_temperature;BMP_pressure;BME280_temperature;BME280_humidity;BME280_pressure;Samples;Min_cycle;Max_cycle;Signal;HPM_P1;HPM_P2
2022/12/23 00:00:36;;;;;;;36.35;26.00;;;;;;;5.31;100.00;100048.38;5029697;28;20252;-48
2022/12/23 00:03:01;;;;;;;39.38;26.60;;;;;;;5.28;100.00;100051.13;5030456;28;20204;-42
2022/12/23 00:05:28;;;;;;;44.13;27.23;;;;;;;5.26;100.00;100040.56;5029911;28;20203;-45
2022/12/23 00:07:54;;;;;;;43.05;26.83;;;;;;;5.32;100.00;100045.69;5029459;28;20163;-45
2022/12/23 00:10:19;;;;;;;50.42;27.08;;;;;;;5.30;100.00;100044.88;5030402;28;20786;-44
2022/12/23 00:15:29;;;;;;;39.40;26.80;;;;;;;5.32;100.00;100036.84;5030933;28;20172;-43
2022/12/23 00:17:54;;;;;;;47.65;28.45;;;;;;;5.34;100.00;100046.53;5030683;28;20172;-48
2022/12/23 00:20:20;;;;;;;39.55;27.98;;;;;;;5.30;100.00;100042.22;5030659;28;20623;-42
2022/12/23 00:23:04;;;;;;;43.83;28.52;;;;;;;5.30;100.00;100044.88;5030389;28;20286;-42
2022/12/23 00:25:40;;;;;;;44.85;28.23;;;;;;;5.34;100.00;100040.34;5030790;28;20211;-42
2022/12/23 00:28:10;;;;;;;52.30;29.17;;;;;;;5.34;100.00;100045.66;5030574;28;20164;-42
2022/12/23 00:30:42;;;;;;;59.97;30.88;;;;;;;5.31;100.00;100046.63;5012830;28;20237;-45
2022/12/23 00:33:08;;;;;;;40.78;28.25;;;;;;;5.32;100.00;100050.13;5030450;28;20211;-42
2022/12/23 00:35:33;;;;;;;48.83;31.10;;;;;;;5.31;100.00;100061.66;5030642;28;20542;-45
2022/12/23 00:37:59;;;;;;;46.20;30.70;;;;;;;5.29;100.00;100053.75;5034361;28;20164;-42
2022/12/23 00:43:08;;;;;;;49.85;30.33;;;;;;;5.32;100.00;100052.78;5034169;28;20262;-42
2022/12/23 00:45:34;;;;;;;52.17;31.45;;;;;;;5.28;100.00;100059.09;5034784;28;20176;-44
2022/12/23 00:50:43;;;;;;;45.33;31.15;;;;;;;5.33;100.00;100055.38;5014732;28;20172;-46
2022/12/23 00:53:09;;;;;;;46.35;31.88;;;;;;;5.25;100.00;100052.09;5014487;28;20208;-42
2022/12/23 00:55:34;;;;;;;52.63;31.90;;;;;;;5.29;100.00;100061.72;5014431;28;20191;-43
2022/12/23 00:58:00;;;;;;;52.85;32.50;;;;;;;5.34;100.00;100070.44;5014540;28;20169;-46
2022/12/23 01:06:00;;;;;;;53.92;32.47;;;;;;;5.29;100.00;100056.41;5034241;28;20172;-46
2022/12/23 01:08:26;;;;;;;49.50;31.88;;;;;;;5.35;100.00;100053.56;5033807;28;20164;-43
2022/12/23 01:10:52;;;;;;;49.97;32.65;;;;;;;5.29;100.00;100044.91;5032526;28;20187;-43
2022/12/23 01:13:18;;;;;;;54.67;33.55;;;;;;;5.26;100.00;100043.22;5028261;28;20687;-42
2022/12/23 01:15:44;;;;;;;55.13;32.90;;;;;;;5.21;100.00;100055.75;5014533;28;20603;-41
2022/12/23 01:18:09;;;;;;;54.70;33.08;;;;;;;5.27;100.00;100057.34;5014315;28;20173;-41
2022/12/23 01:20:39;;;;;;;59.80;34.80;;;;;;;5.21;100.00;100054.91;5013818;28;20161;-46
2022/12/23 01:23:05;;;;;;;58.10;33.55;;;;;;;5.25;100.00;100048.59;5014134;28;20201;-40
2022/12/23 01:25:31;;;;;;;54.78;33.28;;;;;;;5.24;100.00;100047.69;5014107;28;20181;-41
2022/12/23 01:27:56;;;;;;;60.83;34.53;;;;;;;5.27;100.00;100057.34;5013859;28;20173;-42
2022/12/23 01:30:22;;;;;;;55.88;35.13;;;;;;;5.28;100.00;100059.09;5013729;28;20191;-41
2022/12/23 01:32:47;;;;;;;54.10;33.38;;;;;;;5.24;100.00;100055.66;5012311;28;20266;-43
2022/12/23 01:35:13;;;;;;;61.60;33.10;;;;;;;5.21;100.00;100053.09;5013804;28;20168;-46
2022/12/23 01:37:39;;;;;;;63.03;34.67;;;;;;;5.12;100.00;100048.06;5013868;28;20165;-41
2022/12/23 01:40:06;;;;;;;60.55;35.10;;;;;;;5.10;100.00;100040.13;5013235;28;20168;-41
2022/12/23 01:42:44;;;;;;;59.00;34.70;;;;;;;5.07;100.00;100050.84;5013608;28;20576;-47
2022/12/23 01:45:19;;;;;;;61.60;35.08;;;;;;;5.08;100.00;100046.41;5013737;28;20175;-43
2022/12/23 01:48:10;;;;;;;60.22;35.22;;;;;;;5.03;100.00;100049.19;5012892;28;20627;-40
2022/12/23 01:50:38;;;;;;;63.33;36.35;;;;;;;5.02;100.00;100052.75;5013552;28;20164;-42
2022/12/23 01:53:08;;;;;;;71.35;37.42;;;;;;;4.95;100.00;100045.88;5011802;28;20302;-45
2022/12/23 01:55:47;;;;;;;66.88;36.70;;;;;;;4.98;100.00;100047.56;5012387;28;20169;-44
2022/12/23 01:58:16;;;;;;;71.32;36.60;;;;;;;4.99;100.00;100039.56;5013741;28;20203;-41
2022/12/23 02:03:41;;;;;;;58.28;35.63;;;;;;;5.06;100.00;100048.22;5016050;28;20181;-46
2022/12/23 02:09:16;;;;;;;62.45;34.67;;;;;;;5.08;100.00;100049.06;5020433;28;20264;-47
2022/12/23 02:12:05;;;;;;;67.10;36.80;;;;;;;5.08;100.00;100055.22;5020551;28;20208;-44
2022/12/23 02:18:03;;;;;;;66.47;36.13;;;;;;;5.06;100.00;100046.44;5021181;28;20195;-45
2022/12/23 02:20:47;;;;;;;60.58;35.65;;;;;;;5.05;100.00;100059.75;5016093;28;20501;-45
2022/12/23 02:24:09;;;;;;;62.10;35.65;;;;;;;5.02;100.00;100073.97;5024955;28;20603;-46
2022/12/23 02:26:54;;;;;;;61.50;36.15;;;;;;;5.08;100.00;100070.31;4978515;28;20294;-47
2022/12/23 02:29:43;;;;;;;63.15;36.03;;;;;;;5.08;100.00;100080.91;4984226;28;20255;-47
2022/12/23 02:32:50;;;;;;;66.20;36.80;;;;;;;5.08;100.00;100086.22;5015161;28;20287;-48
2022/12/23 02:35:41;;;;;;;65.10;35.83;;;;;;;5.10;100.00;100081.75;5018507;28;20211;-46
2022/12/23 02:38:27;;;;;;;67.95;35.88;;;;;;;5.12;100.00;100083.44;5019551;28;20188;-46
2022/12/23 02:41:03;;;;;;;63.90;38.15;;;;;;;5.20;100.00;100087.66;5021103;28;20192;-46
2022/12/23 02:44:13;;;;;;;72.38;38.40;;;;;;;5.13;100.00;100087.81;5021460;28;20183;-48
2022/12/23 02:46:54;;;;;;;65.75;35.88;;;;;;;5.22;100.00;100078.72;4926087;29;20688;-48
2022/12/23 02:49:36;;;;;;;67.22;37.10;;;;;;;5.20;100.00;100092.97;5015304;28;20194;-47
2022/12/23 02:52:08;;;;;;;74.38;37.42;;;;;;;5.21;100.00;100092.06;5019448;28;20204;-46
2022/12/23 02:54:40;;;;;;;71.82;37.50;;;;;;;5.20;100.00;100091.19;5020946;28;20176;-48
2022/12/23 02:57:08;;;;;;;65.50;37.58;;;;;;;5.18;100.00;100102.75;5018227;28;20187;-48
2022/12/23 02:59:41;;;;;;;64.22;37.17;;;;;;;5.18;100.00;100087.69;5019610;28;20176;-47
2022/12/23 03:02:07;;;;;;;56.67;34.85;;;;;;;5.23;100.00;100099.06;5020466;28;20250;-47
2022/12/23 03:04:32;;;;;;;71.40;36.67;;;;;;;5.23;100.00;100087.59;5020019;28;20211;-46
2022/12/23 03:06:59;;;;;;;68.10;36.10;;;;;;;5.22;100.00;100099.13;5020598;28;20597;-47
2022/12/23 03:09:37;;;;;;;65.93;36.28;;;;;;;5.20;100.00;100096.50;5019793;28;20168;-47
2022/12/23 03:12:17;;;;;;;60.17;35.83;;;;;;;5.19;100.00;100102.72;5020614;28;20207;-44
2022/12/23 03:15:06;;;;;;;63.83;34.55;;;;;;;5.21;100.00;100100.91;5019976;28;20561;-46
2022/12/23 03:18:00;;;;;;;58.97;33.90;;;;;;;5.20;100.00;100108.91;5021479;28;20262;-44
2022/12/23 03:20:41;;;;;;;64.85;35.97;;;;;;;5.18;100.00;100103.63;5017947;28;20685;-45
2022/12/23 03:23:31;;;;;;;66.45;35.42;;;;;;;5.15;100.00;100086.00;5020896;28;20224;-46
2022/12/23 03:26:00;;;;;;;62.55;35.30;;;;;;;5.17;100.00;100091.28;5019539;28;20169;-47
2022/12/23 03:28:41;;;;;;;65.13;35.00;;;;;;;5.16;100.00;100102.81;5019219;28;20245;-46
2022/12/23 03:31:14;;;;;;;60.50;34.67;;;;;;;5.17;100.00;100099.25;5021523;28;20184;-47
2022/12/23 03:33:45;;;;;;;61.97;34.83;;;;;;;5.11;100.00;100107.38;5022960;28;20203;-45
2022/12/23 03:36:37;;;;;;;58.97;34.40;;;;;;;5.07;100.00;100106.59;5017854;28;20180;-46
2022/12/23 03:39:05;;;;;;;65.30;34.53;;;;;;;5.02;100.00;100105.84;5012623;28;20184;-47
2022/12/23 03:41:37;;;;;;;70.47;35.72;;;;;;;5.03;100.00;100104.06;5016409;28;20204;-46
2022/12/23 03:44:09;;;;;;;68.93;37.45;;;;;;;5.03;100.00;100104.06;5021990;28;20234;-46
2022/12/23 03:46:45;;;;;;;65.03;34.00;;;;;;;5.07;100.00;100101.31;5020562;28;20537;-46
2022/12/23 03:49:17;;;;;;;61.35;33.00;;;;;;;5.05;100.00;100100.47;5020809;28;20582;-45
2022/12/23 03:51:55;;;;;;;57.72;32.17;;;;;;;5.08;100.00;100105.69;5017402;28;20188;-45
2022/12/23 03:54:26;;;;;;;58.80;31.83;;;;;;;5.11;100.00;100110.03;5017606;28;20772;-46
2022/12/23 03:57:00;;;;;;;58.25;29.30;;;;;;;5.09;100.00;100098.56;5018036;28;20566;-46
2022/12/23 03:59:40;;;;;;;61.85;30.33;;;;;;;5.02;100.00;100111.16;5019362;28;20276;-46
2022/12/23 04:02:52;;;;;;;54.97;29.30;;;;;;;5.11;100.00;100115.34;5018223;28;20283;-48
2022/12/23 04:05:26;;;;;;;49.90;27.10;;;;;;;5.05;100.00;100105.78;5016747;28;20267;-47
2022/12/23 04:08:13;;;;;;;49.35;28.85;;;;;;;5.24;100.00;100116.75;5011153;28;20196;-46
2022/12/23 04:10:39;;;;;;;57.92;28.33;;;;;;;5.23;100.00;100108.84;5017816;28;20180;-46
2022/12/23 04:13:04;;;;;;;52.75;29.42;;;;;;;5.19;100.00;100102.72;5017299;28;20699;-47
2022/12/23 04:15:30;;;;;;;53.22;28.33;;;;;;;5.10;100.00;100095.88;5026919;28;20192;-46
2022/12/23 04:17:57;;;;;;;54.28;28.10;;;;;;;5.09;100.00;100106.53;5016833;28;20204;-46
2022/12/23 04:20:23;;;;;;;52.25;25.10;;;;;;;5.06;100.00;100109.28;5018521;28;20734;-46
2022/12/23 04:22:49;;;;;;;50.88;26.88;;;;;;;5.05;100.00;100118.16;5017643;28;20189;-48
2022/12/23 04:25:16;;;;;;;44.47;23.92;;;;;;;5.06;100.00;100122.56;5022307;28;20176;-47
2022/12/23 04:27:42;;;;;;;52.55;26.50;;;;;;;4.99;100.00;100115.69;5023146;28;20188;-48
2022/12/23 04:30:10;;;;;;;46.47;25.10;;;;;;;4.99;100.00;100113.03;5018948;28;20668;-47
2022/12/23 04:32:35;;;;;;;50.50;25.25;;;;;;;4.98;100.00;100121.91;5016633;28;20196;-45
2022/12/23 04:35:01;;;;;;;53.00;26.88;;;;;;;4.99;100.00;100115.69;5023318;28;20238;-47
2022/12/23 04:37:27;;;;;;;56.42;26.88;;;;;;;5.01;100.00;100124.47;5019301;28;20184;-47
2022/12/23 04:39:53;;;;;;;50.33;25.08;;;;;;;5.06;100.00;100112.81;5018152;28;20188;-48
2022/12/23 04:42:18;;;;;;;46.13;25.65;;;;;;;5.07;100.00;100122.53;5018919;28;20208;-47
2022/12/23 04:44:44;;;;;;;49.30;26.67;;;;;;;5.11;100.00;100123.31;5018758;28;20180;-47
2022/12/23 04:47:09;;;;;;;58.15;28.75;;;;;;;5.09;100.00;100126.00;5018278;28;20192;-46
2022/12/23 04:49:35;;;;;;;56.13;27.77;;;;;;;5.08;100.00;100118.94;5023354;28;20634;-46
2022/12/23 04:52:00;;;;;;;57.22;27.35;;;;;;;5.10;100.00;100118.91;5018725;28;20194;-47
2022/12/23 04:54:25;;;;;;;56.20;26.95;;;;;;;5.05;100.00;100126.13;5016557;28;20231;-47
2022/12/23 04:56:51;;;;;;;60.50;27.73;;;;;;;5.11;100.00;100124.16;5019278;28;20228;-47
2022/12/23 04:59:16;;;;;;;55.78;26.85;;;;;;;5.11;100.00;100134.78;5019877;28;20246;-46
2022/12/23 05:01:42;;;;;;;60.55;27.33;;;;;;;5.09;100.00;100136.63;5016796;28;20200;-47
2022/12/23 05:04:09;;;;;;;50.22;27.42;;;;;;;5.13;100.00;100124.13;5021316;28;20691;-48
2022/12/23 05:06:35;;;;;;;62.92;28.85;;;;;;;5.06;100.00;100133.19;5021805;28;20755;-47
2022/12/23 05:09:00;;;;;;;62.83;29.45;;;;;;;5.04;100.00;100141.19;5017934;28;20168;-47
2022/12/23 05:11:26;;;;;;;62.53;28.60;;;;;;;5.07;100.00;100145.53;5018222;28;20283;-48
2022/12/23 05:13:52;;;;;;;61.75;29.33;;;;;;;5.09;100.00;100146.38;5020806;28;20234;-48
2022/12/23 05:16:17;;;;;;;64.25;29.70;;;;;;;5.04;100.00;100156.25;5019075;28;20186;-46
2022/12/23 05:18:43;;;;;;;62.90;30.80;;;;;;;5.03;100.00;100157.16;5018414;28;20179;-48
2022/12/23 05:21:09;;;;;;;57.80;28.88;;;;;;;5.02;100.00;100169.56;5019116;28;20192;-49
2022/12/23 05:23:34;;;;;;;61.53;30.75;;;;;;;5.02;100.00;100180.19;5023250;28;20169;-47
2022/12/23 05:26:00;;;;;;;59.22;29.55;;;;;;;5.01;100.00;100185.50;5024124;28;20674;-45
2022/12/23 05:28:25;;;;;;;56.40;27.92;;;;;;;4.99;100.00;100177.63;5020163;28;20243;-46
2022/12/23 05:31:02;;;;;;;63.28;29.08;;;;;;;5.03;100.00;100173.97;5028685;28;20229;-47
2022/12/23 05:33:29;;;;;;;58.55;27.33;;;;;;;5.07;100.00;100174.75;5021553;28;20204;-47
2022/12/23 05:35:55;;;;;;;59.28;28.13;;;;;;;5.00;100.00;100178.47;5020313;28;20264;-46
2022/12/23 05:38:20;;;;;;;50.30;24.48;;;;;;;5.06;100.00;100173.88;5026566;28;20262;-43
2022/12/23 05:40:46;;;;;;;49.67;27.02;;;;;;;4.94;100.00;100175.09;5022721;28;20352;-46
2022/12/23 05:43:12;;;;;;;63.50;27.27;;;;;;;4.86;100.00;100177.06;5031090;28;20321;-47
2022/12/23 05:45:38;;;;;;;59.13;27.15;;;;;;;4.81;100.00;100180.72;5021716;28;20977;-44
2022/12/23 05:48:03;;;;;;;50.92;27.48;;;;;;;4.80;100.00;100171.91;5026722;28;20219;-43
2022/12/23 05:50:29;;;;;;;50.08;25.40;;;;;;;4.88;100.00;100175.22;5022438;28;20204;-44
2022/12/23 05:52:54;;;;;;;52.90;27.17;;;;;;;4.89;100.00;100182.28;5021286;28;20705;-47
2022/12/23 05:55:21;;;;;;;54.92;27.60;;;;;;;4.76;100.00;100194.09;5019499;28;20267;-42
2022/12/23 05:57:46;;;;;;;50.03;26.08;;;;;;;4.80;100.00;100192.25;5020597;28;20196;-43
2022/12/23 06:00:12;;;;;;;53.25;26.92;;;;;;;4.81;100.00;100192.22;5020547;28;20526;-43
2022/12/23 06:02:39;;;;;;;50.45;26.10;;;;;;;4.83;100.00;100195.72;5022860;28;20196;-47
2022/12/23 06:05:05;;;;;;;52.38;26.00;;;;;;;4.89;100.00;100205.28;5025956;28;20624;-43
2022/12/23 06:07:31;;;;;;;58.88;28.70;;;;;;;4.90;100.00;100207.91;5018798;28;20192;-48
2022/12/23 06:09:56;;;;;;;72.57;29.40;;;;;;;4.89;100.00;100208.81;5016170;28;20619;-43
2022/12/23 06:12:22;;;;;;;62.55;29.05;;;;;;;4.94;100.00;100209.59;5025019;28;20192;-43
2022/12/23 06:14:47;;;;;;;60.13;28.08;;;;;;;4.98;100.00;100204.19;5019676;28;20196;-47
2022/12/23 06:17:13;;;;;;;64.72;27.67;;;;;;;4.92;100.00;100202.59;5021530;28;20223;-42
2022/12/23 06:19:38;;;;;;;57.95;26.98;;;;;;;5.00;100.00;100197.94;5019792;28;20239;-44
2022/12/23 06:22:04;;;;;;;61.72;27.67;;;;;;;4.99;100.00;100198.84;5023500;28;20555;-44
2022/12/23 06:24:29;;;;;;;55.42;25.98;;;;;;;4.98;100.00;100207.72;5019498;28;20185;-42
2022/12/23 06:26:55;;;;;;;62.08;29.10;;;;;;;5.01;100.00;100201.44;5021769;28;20268;-43
2022/12/23 06:29:20;;;;;;;71.88;27.65;;;;;;;4.99;100.00;100205.94;5019541;28;20192;-43
2022/12/23 06:31:46;;;;;;;65.32;28.35;;;;;;;4.98;100.00;100210.38;5022417;28;20675;-45
2022/12/23 06:34:12;;;;;;;53.70;25.52;;;;;;;5.06;100.00;100211.06;5014983;28;20319;-42
2022/12/23 06:36:38;;;;;;;68.15;29.38;;;;;;;5.00;100.00;100205.88;5015396;28;20172;-43
2022/12/23 06:39:03;;;;;;;68.55;28.58;;;;;;;5.01;100.00;100225.34;5018689;28;20195;-42
2022/12/23 06:41:29;;;;;;;83.85;30.08;;;;;;;5.03;100.00;100212.91;5024405;28;20212;-44
2022/12/23 06:43:54;;;;;;;57.85;28.15;;;;;;;5.06;100.00;100226.13;5024973;28;20659;-46
2022/12/23 06:46:20;;;;;;;72.90;29.95;;;;;;;5.00;100.00;100216.50;5024179;28;20177;-44
2022/12/23 06:48:45;;;;;;;67.63;28.83;;;;;;;5.02;100.00;100211.16;5020306;28;20180;-43
2022/12/23 06:51:11;;;;;;;72.38;30.33;;;;;;;5.01;100.00;100228.00;5017675;28;20211;-46
2022/12/23 06:53:37;;;;;;;74.53;30.33;;;;;;;4.99;100.00;100233.38;5022207;28;20674;-43
2022/12/23 06:56:03;;;;;;;74.43;30.75;;;;;;;5.02;100.00;100249.19;5018067;28;20199;-43
2022/12/23 06:58:29;;;;;;;79.18;32.33;;;;;;;5.01;100.00;100234.19;5016699;28;20330;-44
2022/12/23 07:00:55;;;;;;;75.57;31.05;;;;;;;5.00;100.00;100242.19;5023742;28;20283;-43
2022/12/23 07:03:20;;;;;;;73.80;30.08;;;;;;;5.08;100.00;100243.75;5013749;28;20200;-45
2022/12/23 07:05:50;;;;;;;78.97;32.38;;;;;;;5.04;100.00;100249.16;5020170;28;20179;-43
2022/12/23 07:08:16;;;;;;;74.18;31.85;;;;;;;5.00;100.00;100252.81;5022739;28;20188;-45
2022/12/23 07:10:42;;;;;;;78.32;29.55;;;;;;;4.92;100.00;100251.22;5013584;28;20170;-47
2022/12/23 07:13:07;;;;;;;76.90;30.98;;;;;;;4.95;100.00;100255.59;5018491;28;20385;-47
2022/12/23 07:15:33;;;;;;;70.45;30.27;;;;;;;4.94;100.00;100261.78;5017999;28;20196;-41
2022/12/23 07:17:58;;;;;;;72.75;29.10;;;;;;;5.02;100.00;100258.97;5020735;28;20263;-42
2022/12/23 07:20:24;;;;;;;54.78;26.52;;;;;;;5.05;100.00;100257.13;5015409;28;20206;-45
2022/12/23 07:22:49;;;;;;;55.25;24.50;;;;;;;4.83;100.00;100255.88;5017039;28;20188;-42
2022/12/23 07:25:15;;;;;;;52.95;23.73;;;;;;;4.75;100.00;100256.94;5024988;28;20188;-44
2022/12/23 07:27:41;;;;;;;50.20;22.05;;;;;;;4.75;100.00;100267.53;5017831;28;20651;-44
2022/12/23 07:30:07;;;;;;;49.25;21.33;;;;;;;4.60;100.00;100275.00;5016967;28;20227;-45
2022/12/23 07:32:33;;;;;;;47.40;20.38;;;;;;;4.65;100.00;100283.72;5019591;28;22633;-42
2022/12/23 07:34:58;;;;;;;37.90;17.83;;;;;;;4.82;100.00;100285.97;5019368;28;20197;-44
2022/12/23 07:37:24;;;;;;;44.50;19.95;;;;;;;4.79;100.00;100288.69;5016995;28;20185;-42
2022/12/23 07:39:49;;;;;;;45.20;18.92;;;;;;;4.75;100.00;100282.59;5024083;28;20567;-43
2022/12/23 07:42:15;;;;;;;38.55;17.88;;;;;;;4.77;100.00;100296.72;5019215;28;20512;-43
2022/12/23 07:44:40;;;;;;;39.08;17.58;;;;;;;4.79;100.00;100296.66;5020144;28;20305;-50
2022/12/23 07:47:06;;;;;;;42.47;19.15;;;;;;;4.79;100.00;100300.19;5014673;28;20300;-40
2022/12/23 07:49:31;;;;;;;34.70;17.17;;;;;;;4.85;100.00;100305.34;5022807;28;20196;-44
2022/12/23 07:51:56;;;;;;;39.47;18.15;;;;;;;4.82;100.00;100297.47;5014799;28;20729;-46
2022/12/23 07:54:22;;;;;;;38.00;17.38;;;;;;;4.77;100.00;100299.38;5027427;28;20242;-45
2022/12/23 07:56:47;;;;;;;36.75;16.35;;;;;;;4.82;100.00;100299.25;5017016;28;20188;-43
2022/12/23 07:59:13;;;;;;;38.72;15.27;;;;;;;4.82;100.00;100305.44;5013218;28;20189;-48
2022/12/23 08:01:38;;;;;;;30.73;13.43;;;;;;;4.78;100.00;100316.16;5021974;28;20211;-42
2022/12/23 08:04:04;;;;;;;24.85;11.48;;;;;;;4.73;100.00;100319.78;5018738;28;20184;-43
2022/12/23 08:06:31;;;;;;;20.63;10.13;;;;;;;4.74;100.00;100324.19;5018396;28;20226;-43
2022/12/23 08:08:56;;;;;;;18.58;8.57;;;;;;;4.76;100.00;100337.41;5020303;28;20613;-41
2022/12/23 08:11:22;;;;;;;15.18;7.90;;;;;;;4.75;100.00;100341.84;5020461;28;20226;-44
2022/12/23 08:13:48;;;;;;;13.60;6.68;;;;;;;4.69;100.00;100343.78;5013646;28;20219;-41
2022/12/23 08:16:13;;;;;;;13.13;6.45;;;;;;;4.67;100.00;100343.78;5018850;28;20177;-45
2022/12/23 08:18:40;;;;;;;11.10;6.20;;;;;;;4.74;100.00;100363.09;5011422;28;20201;-45
2022/12/23 08:21:18;;;;;;;9.05;6.53;;;;;;;4.69;100.00;100362.34;5019398;28;20249;-42
2022/12/23 08:23:45;;;;;;;8.23;6.28;;;;;;;4.77;100.00;100370.13;5022090;28;20203;-43
2022/12/23 08:26:16;;;;;;;12.00;6.43;;;;;;;4.74;100.00;100369.31;5026406;28;21013;-47
2022/12/23 08:28:43;;;;;;;11.50;6.45;;;;;;;4.75;100.00;100371.03;5017835;28;20192;-46
2022/12/23 08:31:15;;;;;;;15.05;6.07;;;;;;;4.70;100.00;100364.97;5019144;28;20775;-45
2022/12/23 08:33:42;;;;;;;9.45;5.70;;;;;;;4.71;100.00;100364.06;5019638;28;20230;-46
2022/12/23 08:36:12;;;;;;;8.23;5.38;;;;;;;4.80;100.00;100364.75;5015570;28;20187;-47
2022/12/23 08:38:37;;;;;;;11.18;6.32;;;;;;;4.74;100.00;100357.81;5016137;28;20181;-47
2022/12/23 08:41:07;;;;;;;12.13;6.20;;;;;;;4.71;100.00;100366.69;5012247;28;20690;-47
2022/12/23 08:43:33;;;;;;;12.55;6.65;;;;;;;4.85;100.00;100362.88;5017017;28;20176;-46
2022/12/23 08:45:58;;;;;;;14.73;6.30;;;;;;;4.80;100.00;100367.41;5020126;28;20192;-47
2022/12/23 08:48:24;;;;;;;11.98;6.78;;;;;;;4.79;100.00;100365.66;5020248;28;20176;-45
2022/12/23 08:50:49;;;;;;;12.25;6.93;;;;;;;4.89;100.00;100346.84;5016666;28;20236;-46
2022/12/23 08:53:15;;;;;;;10.35;6.53;;;;;;;4.90;100.00;100350.41;5018775;28;20254;-46
2022/12/23 08:55:44;;;;;;;10.93;6.50;;;;;;;4.83;100.00;100352.31;5018727;28;20506;-48
2022/12/23 08:58:12;;;;;;;12.07;6.97;;;;;;;4.75;100.00;100364.88;5021799;28;20184;-48
2022/12/23 09:00:38;;;;;;;13.23;6.95;;;;;;;4.86;100.00;100357.53;5021797;28;20180;-45
2022/12/23 09:03:04;;;;;;;12.15;6.72;;;;;;;4.75;100.00;100362.22;5022435;28;20232;-46
2022/12/23 09:05:30;;;;;;;9.98;6.20;;;;;;;4.74;100.00;100371.97;5023063;28;20226;-46
2022/12/23 09:07:56;;;;;;;10.00;5.90;;;;;;;4.75;100.00;100362.22;5023017;28;20230;-47
2022/12/23 09:10:22;;;;;;;11.63;6.03;;;;;;;4.77;100.00;100357.75;5018828;28;20217;-47
2022/12/23 09:12:48;;;;;;;9.10;6.45;;;;;;;4.59;100.00;100368.75;5020407;28;20247;-47
2022/12/23 09:15:14;;;;;;;11.00;6.40;;;;;;;4.56;100.00;100371.47;5021005;28;20521;-47
2022/12/23 09:17:40;;;;;;;8.23;5.60;;;;;;;4.53;100.00;100375.94;5019323;28;20530;-47
2022/12/23 09:20:06;;;;;;;11.80;7.80;;;;;;;4.47;100.00;100376.06;5021580;28;20212;-47
2022/12/23 09:22:32;;;;;;;20.13;13.80;;;;;;;4.50;100.00;100373.34;5020338;28;20207;-48
2022/12/23 09:24:58;;;;;;;26.20;20.50;;;;;;;4.64;100.00;100374.84;5021804;28;20576;-48
2022/12/23 09:27:23;;;;;;;30.05;23.17;;;;;;;4.64;100.00;100375.72;5023424;28;20242;-48
2022/12/23 09:29:49;;;;;;;26.33;18.55;;;;;;;4.68;100.00;100373.84;5021021;28;20246;-47
2022/12/23 09:32:14;;;;;;;19.25;14.10;;;;;;;4.80;100.00;100378.91;5022213;28;20220;-47
2022/12/23 09:34:40;;;;;;;10.55;7.93;;;;;;;4.83;100.00;100367.34;5025083;28;20255;-46
2022/12/23 09:37:05;;;;;;;9.30;6.20;;;;;;;4.86;100.00;100378.78;5023445;28;20226;-46
2022/12/23 09:39:31;;;;;;;7.38;5.30;;;;;;;5.06;100.00;100374.81;5022252;28;20168;-46
2022/12/23 09:42:44;;;;;;;10.30;5.97;;;;;;;5.10;100.00;100371.16;5019640;28;20205;-47
2022/12/23 09:45:21;;;;;;;7.78;6.15;;;;;;;4.92;100.00;100377.78;4993669;28;20316;-46
2022/12/23 09:48:12;;;;;;;11.32;7.18;;;;;;;4.94;100.00;100362.66;5019899;28;20654;-46
2022/12/23 09:50:40;;;;;;;14.15;6.82;;;;;;;4.82;100.00;100366.47;5021783;28;20191;-46
2022/12/23 09:53:11;;;;;;;8.35;5.60;;;;;;;4.92;100.00;100377.78;5020028;28;20207;-46
2022/12/23 09:55:58;;;;;;;8.57;5.25;;;;;;;4.92;100.00;100370.69;5023184;28;20200;-46
2022/12/23 09:58:23;;;;;;;6.22;4.50;;;;;;;5.03;100.00;100375.75;5020757;28;20464;-47
2022/12/23 10:01:05;;;;;;;5.80;3.70;;;;;;;5.20;100.00;100375.34;5021433;28;20270;-46
2022/12/23 10:03:43;;;;;;;9.40;4.55;;;;;;;5.09;100.00;100374.72;5023446;28;20264;-47
2022/12/23 10:06:18;;;;;;;6.00;3.85;;;;;;;5.08;100.00;100378.28;5022358;28;20631;-46
2022/12/23 10:08:50;;;;;;;8.23;4.38;;;;;;;4.99;100.00;100378.50;5020271;28;20181;-47
2022/12/23 10:11:22;;;;;;;5.15;3.78;;;;;;;4.95;100.00;100380.34;5019706;28;20181;-47
2022/12/23 10:13:51;;;;;;;5.07;3.55;;;;;;;4.95;100.00;100373.25;5021491;28;20238;-46
2022/12/23 10:16:51;;;;;;;6.32;4.13;;;;;;;4.92;100.00;100373.34;5021510;28;20733;-46
2022/12/23 10:19:24;;;;;;;6.93;3.65;;;;;;;4.99;100.00;100376.72;5008041;28;20204;-46
2022/12/23 10:21:53;;;;;;;6.53;3.88;;;;;;;4.95;100.00;100375.03;5015248;28;20239;-48
2022/12/23 10:24:36;;;;;;;6.22;4.13;;;;;;;4.97;100.00;100377.66;5021312;28;20173;-47
2022/12/23 10:27:29;;;;;;;9.40;4.65;;;;;;;5.00;100.00;100378.44;5020142;28;20642;-46
2022/12/23 10:29:58;;;;;;;5.32;3.90;;;;;;;5.14;100.00;100367.53;5020753;28;20172;-48
2022/12/23 10:33:07;;;;;;;9.02;5.25;;;;;;;5.18;100.00;100371.84;5020402;28;20584;-48
2022/12/23 10:35:38;;;;;;;10.80;4.07;;;;;;;5.27;100.00;100365.44;4956780;28;20572;-47
2022/12/23 10:38:09;;;;;;;8.27;4.88;;;;;;;5.29;100.00;100363.63;5006629;28;20694;-47
2022/12/23 10:40:51;;;;;;;8.05;4.28;;;;;;;5.40;100.00;100352.72;5020431;28;20184;-47
2022/12/23 10:43:36;;;;;;;7.80;4.70;;;;;;;5.31;100.00;100346.75;5022159;28;20219;-46
2022/12/23 10:46:40;;;;;;;12.85;4.88;;;;;;;5.21;100.00;100350.53;5027062;28;20184;-45
2022/12/23 10:49:19;;;;;;;7.05;4.68;;;;;;;5.15;100.00;100338.28;5029982;28;20772;-46
2022/12/23 10:52:02;;;;;;;9.35;5.05;;;;;;;5.10;100.00;100337.50;5019096;28;20654;-46
2022/12/23 10:54:34;;;;;;;7.63;5.32;;;;;;;5.15;100.00;100343.56;5020177;28;20211;-45
2022/12/23 10:57:01;;;;;;;9.20;5.03;;;;;;;5.07;100.00;100339.34;5019259;28;20286;-46
2022/12/23 10:59:30;;;;;;;8.30;4.88;;;;;;;5.07;100.00;100355.28;5021412;28;20546;-46
2022/12/23 11:02:27;;;;;;;9.10;4.85;;;;;;;5.30;100.00;100355.63;5022095;28;20196;-45
2022/12/23 11:04:53;;;;;;;6.85;4.45;;;;;;;5.62;100.00;100351.31;5021255;28;20203;-45
2022/12/23 11:07:24;;;;;;;9.02;4.60;;;;;;;5.27;100.00;100365.44;5017984;28;20168;-45
2022/12/23 11:10:01;;;;;;;10.35;4.50;;;;;;;5.22;100.00;100359.38;5020816;28;20180;-47
2022/12/23 11:12:40;;;;;;;5.63;3.72;;;;;;;4.95;100.00;100359.97;5018413;28;20242;-44
2022/12/23 11:15:23;;;;;;;7.43;3.55;;;;;;;4.91;100.00;100357.44;5018995;28;20692;-47
2022/12/23 11:18:01;;;;;;;6.18;3.67;;;;;;;4.83;100.00;100359.38;5021467;28;20473;-46
2022/12/23 11:20:26;;;;;;;9.57;4.78;;;;;;;4.93;100.00;100361.78;5016027;28;20203;-46
2022/12/23 11:23:01;;;;;;;4.60;3.10;;;;;;;5.02;100.00;100365.16;5021101;28;20192;-47
2022/12/23 11:25:39;;;;;;;10.98;4.07;;;;;;;5.26;100.00;100372.53;5018638;28;20331;-47
2022/12/23 11:28:10;;;;;;;5.78;3.42;;;;;;;5.37;100.00;100367.84;5019728;28;20172;-48
2022/12/23 11:31:04;;;;;;;9.43;3.55;;;;;;;5.39;100.00;100374.91;5020328;28;20180;-48
2022/12/23 11:34:00;;;;;;;7.35;3.78;;;;;;;5.50;100.00;100376.38;5019071;28;20200;-45
2022/12/23 11:36:28;;;;;;;5.88;3.33;;;;;;;5.42;100.00;100372.16;5022354;28;20188;-46
2022/12/23 11:39:09;;;;;;;4.25;3.22;;;;;;;5.44;100.00;100365.91;5020394;28;20646;-46
2022/12/23 11:41:49;;;;;;;4.28;3.67;;;;;;;5.45;100.00;100358.84;5017591;28;20298;-47
2022/12/23 11:44:39;;;;;;;5.47;3.13;;;;;;;5.35;100.00;100361.69;5019663;28;20172;-45
2022/12/23 11:47:27;;;;;;;6.07;2.97;;;;;;;5.54;100.00;100345.31;5021235;28;20226;-46
2022/12/23 11:49:58;;;;;;;5.20;2.80;;;;;;;5.51;100.00;100350.69;5019185;28;20172;-46
2022/12/23 11:52:31;;;;;;;6.78;3.28;;;;;;;5.47;100.00;100339.28;5017866;28;20294;-46
2022/12/23 11:55:01;;;;;;;4.18;2.97;;;;;;;5.57;100.00;100339.91;5019628;28;20534;-46